createdAt,value
2023-01-19T00:01:02.740Z,14.70
2023-01-19T00:03:29.865Z,16.33
2023-01-19T00:05:57.359Z,14.02
2023-01-19T00:08:24.440Z,14.27
2023-01-19T00:10:51.659Z,13.60
2023-01-19T00:13:19.197Z,14.00
2023-01-19T00:15:46.617Z,13.38
2023-01-19T00:18:13.861Z,13.73
2023-01-19T00:20:41.129Z,12.35
2023-01-19T00:23:08.935Z,14.43
2023-01-19T00:25:42.511Z,13.95
2023-01-19T00:28:15.543Z,14.90
2023-01-19T00:30:43.793Z,14.18
2023-01-19T00:33:14.669Z,13.98
2023-01-19T00:35:45.353Z,13.00
2023-01-19T00:38:12.867Z,14.88
2023-01-19T00:40:40.141Z,14.75
2023-01-19T00:43:07.181Z,14.25
2023-01-19T00:45:34.491Z,14.60
2023-01-19T00:48:02.314Z,15.20
2023-01-19T00:50:31.777Z,14.20
2023-01-19T00:53:03.594Z,15.00
2023-01-19T00:55:32.827Z,14.00
2023-01-19T00:58:00.630Z,14.75
2023-01-19T01:00:27.757Z,14.18
2023-01-19T01:02:55.107Z,13.80
2023-01-19T01:05:22.601Z,13.98
2023-01-19T01:07:50.103Z,15.07
2023-01-19T01:10:23.441Z,15.05
2023-01-19T01:12:56.093Z,15.35
2023-01-19T01:15:26.789Z,14.75
2023-01-19T01:17:54.624Z,14.98
2023-01-19T01:20:25.485Z,15.48
2023-01-19T01:22:55.372Z,15.45
2023-01-19T01:25:24.822Z,15.00
2023-01-19T01:27:52.690Z,14.80
2023-01-19T01:30:20.260Z,14.50
2023-01-19T01:32:47.793Z,14.00
2023-01-19T01:35:15.925Z,15.00
2023-01-19T01:37:43.574Z,14.88
2023-01-19T01:40:16.596Z,14.95
2023-01-19T01:42:44.303Z,14.70
2023-01-19T01:45:34.119Z,14.45
2023-01-19T01:48:14.452Z,14.75
2023-01-19T01:51:22.632Z,14.52
2023-01-19T01:54:01.013Z,14.30
2023-01-19T01:56:35.409Z,14.73
2023-01-19T01:59:06.859Z,14.83
2023-01-19T02:01:55.651Z,15.65
2023-01-19T02:04:24.036Z,15.95
2023-01-19T02:07:09.742Z,15.98
2023-01-19T02:09:56.503Z,15.60
2023-01-19T02:12:42.494Z,16.58
2023-01-19T02:15:18.479Z,16.17
2023-01-19T02:17:46.666Z,16.08
2023-01-19T02:20:14.303Z,16.27
2023-01-19T02:22:48.247Z,16.55
2023-01-19T02:25:16.826Z,20.67
2023-01-19T02:27:44.701Z,18.95
2023-01-19T02:30:13.269Z,17.88
2023-01-19T02:32:40.604Z,15.38
2023-01-19T02:35:07.985Z,16.00
2023-01-19T02:37:40.491Z,16.83
2023-01-19T02:40:12.697Z,17.48
2023-01-19T02:42:46.129Z,16.27
2023-01-19T02:45:17.518Z,15.80
2023-01-19T02:47:47.584Z,15.68
2023-01-19T02:50:31.653Z,16.25
2023-01-19T02:53:06.920Z,16.40
2023-01-19T02:55:34.596Z,17.00
2023-01-19T02:58:28.481Z,16.23
2023-01-19T03:01:14.179Z,15.88
2023-01-19T03:03:51.380Z,16.80
2023-01-19T03:06:33.633Z,16.27
2023-01-19T03:09:15.111Z,17.08
2023-01-19T03:11:48.892Z,16.95
2023-01-19T03:14:22.303Z,16.70
2023-01-19T03:16:57.303Z,16.20
2023-01-19T03:19:32.192Z,16.70
2023-01-19T03:22:03.058Z,17.98
2023-01-19T03:24:40.331Z,17.25
2023-01-19T03:27:12.938Z,17.25
2023-01-19T03:29:46.374Z,18.70
2023-01-19T03:32:22.328Z,16.33
2023-01-19T03:34:51.842Z,16.30
2023-01-19T03:37:21.460Z,17.95
2023-01-19T03:39:48.905Z,16.23
2023-01-19T03:42:18.172Z,16.77
2023-01-19T03:44:46.765Z,16.25
2023-01-19T03:47:15.681Z,15.43
2023-01-19T03:49:47.809Z,15.93
2023-01-19T03:52:15.153Z,18.13
2023-01-19T03:54:43.751Z,17.35
2023-01-19T03:57:10.836Z,16.33
2023-01-19T03:59:37.886Z,17.50
2023-01-19T04:02:05.350Z,18.15
2023-01-19T04:04:32.765Z,17.52
2023-01-19T04:07:01.568Z,16.90
2023-01-19T04:09:28.874Z,18.10
2023-01-19T04:11:58.040Z,19.25
2023-01-19T04:14:25.298Z,19.52
2023-01-19T04:16:52.657Z,17.88
2023-01-19T04:19:20.442Z,18.05
2023-01-19T04:21:51.335Z,18.27
2023-01-19T04:24:18.637Z,18.70
2023-01-19T04:26:45.773Z,18.02
2023-01-19T04:29:14.211Z,17.52
2023-01-19T04:31:41.262Z,17.33
2023-01-19T04:34:08.450Z,19.00
2023-01-19T04:36:37.304Z,19.48
2023-01-19T04:39:05.320Z,18.52
2023-01-19T04:41:32.551Z,18.20
2023-01-19T04:43:59.754Z,18.85
2023-01-19T04:46:27.608Z,18.08
2023-01-19T04:48:54.835Z,18.48
2023-01-19T04:51:22.669Z,17.50
2023-01-19T04:53:50.432Z,18.83
2023-01-19T04:56:17.706Z,17.17
2023-01-19T04:58:45.591Z,19.58
2023-01-19T05:01:14.371Z,19.77
2023-01-19T05:03:42.147Z,20.27
2023-01-19T05:06:09.580Z,16.65
2023-01-19T05:08:36.851Z,20.23
2023-01-19T05:11:04.596Z,19.63
2023-01-19T05:13:31.875Z,18.70
2023-01-19T05:15:59.492Z,16.60
2023-01-19T05:18:26.582Z,20.20
2023-01-19T05:20:54.038Z,20.25
2023-01-19T05:23:21.634Z,19.17
2023-01-19T05:25:49.032Z,18.83
2023-01-19T05:28:16.899Z,18.67
2023-01-19T05:30:44.128Z,20.00
2023-01-19T05:33:11.975Z,19.92
2023-01-19T05:35:39.349Z,20.30
2023-01-19T05:38:06.799Z,20.52
2023-01-19T05:40:34.001Z,20.60
2023-01-19T05:43:05.500Z,20.08
2023-01-19T05:45:32.982Z,20.42
2023-01-19T05:48:02.318Z,19.10
2023-01-19T05:50:29.467Z,19.52
2023-01-19T05:52:56.865Z,21.95
2023-01-19T05:55:24.369Z,19.58
2023-01-19T05:57:51.614Z,18.83
2023-01-19T06:00:19.739Z,21.15
2023-01-19T06:02:49.539Z,19.63
2023-01-19T06:05:17.221Z,21.08
2023-01-19T06:07:44.430Z,22.25
2023-01-19T06:10:12.211Z,21.48
2023-01-19T06:12:44.173Z,22.90
2023-01-19T06:15:13.224Z,20.83
2023-01-19T06:17:40.870Z,20.65
2023-01-19T06:20:09.265Z,21.02
2023-01-19T06:22:36.375Z,21.30
2023-01-19T06:25:03.910Z,22.40
2023-01-19T06:27:31.016Z,21.92
2023-01-19T06:29:59.178Z,23.23
2023-01-19T06:32:26.501Z,22.35
2023-01-19T06:34:54.213Z,22.80
2023-01-19T06:37:21.724Z,21.85
2023-01-19T06:39:48.947Z,22.05
2023-01-19T06:42:16.289Z,21.50
2023-01-19T06:44:47.639Z,21.15
2023-01-19T06:47:16.691Z,21.63
2023-01-19T06:49:45.399Z,21.58
2023-01-19T06:52:17.709Z,22.27
2023-01-19T06:54:45.597Z,22.13
2023-01-19T06:57:14.081Z,21.20
2023-01-19T06:59:42.130Z,21.38
2023-01-19T07:02:26.678Z,20.00
2023-01-19T07:04:56.526Z,20.40
2023-01-19T07:07:24.546Z,20.85
2023-01-19T07:09:53.952Z,20.85
2023-01-19T07:12:23.788Z,21.67
2023-01-19T07:14:53.214Z,21.48
2023-01-19T07:17:21.313Z,21.75
2023-01-19T07:19:48.444Z,22.02
2023-01-19T07:22:16.336Z,20.25
2023-01-19T07:24:43.842Z,21.38
2023-01-19T07:27:12.498Z,19.15
2023-01-19T07:29:40.048Z,21.58
2023-01-19T07:32:07.720Z,20.05
2023-01-19T07:34:35.035Z,20.20
2023-01-19T07:37:02.749Z,18.95
2023-01-19T07:39:30.946Z,20.30
2023-01-19T07:41:59.194Z,19.05
2023-01-19T07:44:27.369Z,19.52
2023-01-19T07:46:54.754Z,21.10
2023-01-19T07:49:22.275Z,21.55
2023-01-19T07:51:49.698Z,21.33
2023-01-19T07:54:16.892Z,18.88
2023-01-19T07:56:44.180Z,21.33
2023-01-19T07:59:11.596Z,20.73
2023-01-19T08:01:39.427Z,21.17
2023-01-19T08:04:06.966Z,21.25
2023-01-19T08:06:37.187Z,20.60
2023-01-19T08:09:09.533Z,21.85
2023-01-19T08:11:37.544Z,20.48
2023-01-19T08:14:07.773Z,20.00
2023-01-19T08:16:35.736Z,20.55
2023-01-19T08:19:06.143Z,18.70
2023-01-19T08:21:33.740Z,20.20
2023-01-19T08:24:01.463Z,19.45
2023-01-19T08:26:34.949Z,20.52
2023-01-19T08:29:05.513Z,19.05
2023-01-19T08:31:33.167Z,20.00
2023-01-19T08:34:00.646Z,21.45
2023-01-19T08:36:27.979Z,19.48
2023-01-19T08:38:55.626Z,20.73
2023-01-19T08:41:23.006Z,18.88
2023-01-19T08:43:50.702Z,19.95
2023-01-19T08:46:21.295Z,20.35
2023-01-19T08:48:49.625Z,17.98
2023-01-19T08:51:17.538Z,19.83
2023-01-19T08:53:44.736Z,19.83
2023-01-19T08:56:15.348Z,19.08
2023-01-19T08:58:44.390Z,20.02
2023-01-19T09:01:14.962Z,19.65
2023-01-19T09:03:42.701Z,17.13
2023-01-19T09:06:12.463Z,20.15
2023-01-19T09:08:41.293Z,19.35
2023-01-19T09:11:14.220Z,18.02
2023-01-19T09:13:42.755Z,18.48
2023-01-19T09:16:12.817Z,17.55
2023-01-19T09:18:41.526Z,17.95
2023-01-19T09:21:10.010Z,17.92
2023-01-19T09:23:38.520Z,20.50
2023-01-19T09:26:10.588Z,19.58
2023-01-19T09:28:37.993Z,21.38
2023-01-19T09:31:08.861Z,18.55
2023-01-19T09:33:37.292Z,19.88
2023-01-19T09:36:04.585Z,19.45
2023-01-19T09:38:33.067Z,18.02
2023-01-19T09:41:01.576Z,19.75
2023-01-19T09:44:01.434Z,17.35
2023-01-19T09:46:42.315Z,18.23
2023-01-19T09:49:31.758Z,18.40
2023-01-19T09:51:59.750Z,17.80
2023-01-19T09:54:41.252Z,19.35
2023-01-19T09:57:12.787Z,19.33
2023-01-19T09:59:41.803Z,17.23
2023-01-19T10:02:32.060Z,21.42
2023-01-19T10:05:21.736Z,20.58
2023-01-19T10:08:03.908Z,20.45
2023-01-19T10:10:32.558Z,20.70
2023-01-19T10:13:03.168Z,20.00
2023-01-19T10:15:57.526Z,16.52
2023-01-19T10:18:48.052Z,19.35
2023-01-19T10:21:20.983Z,17.25
2023-01-19T10:24:00.036Z,18.80
2023-01-19T10:26:52.678Z,20.90
2023-01-19T10:29:28.881Z,19.67
2023-01-19T10:32:18.274Z,17.85
2023-01-19T10:34:46.602Z,19.60
2023-01-19T10:37:31.051Z,20.10
2023-01-19T10:40:10.712Z,19.40
2023-01-19T10:42:40.814Z,21.30
2023-01-19T10:45:22.485Z,21.70
2023-01-19T10:47:49.947Z,20.00
2023-01-19T10:50:26.206Z,20.27
2023-01-19T10:52:56.598Z,21.13
2023-01-19T10:55:25.857Z,21.30
2023-01-19T10:57:53.867Z,21.02
2023-01-19T11:00:38.234Z,19.15
2023-01-19T11:03:23.251Z,19.75
2023-01-19T11:05:50.841Z,21.13
2023-01-19T11:08:24.433Z,21.25
2023-01-19T11:10:59.740Z,21.08
2023-01-19T11:13:27.057Z,19.35
2023-01-19T11:15:59.417Z,20.20
2023-01-19T11:18:40.800Z,19.20
2023-01-19T11:21:22.431Z,20.08
2023-01-19T11:23:53.207Z,20.10
2023-01-19T11:26:28.372Z,20.70
2023-01-19T11:28:57.240Z,20.45
2023-01-19T11:31:34.203Z,20.27
2023-01-19T11:34:07.189Z,20.65
2023-01-19T11:36:37.584Z,21.27
2023-01-19T11:39:26.766Z,19.48
2023-01-19T11:42:01.671Z,19.67
2023-01-19T11:44:36.045Z,19.58
2023-01-19T11:47:12.800Z,20.58
2023-01-19T11:49:56.057Z,18.45
2023-01-19T11:52:33.140Z,18.77
2023-01-19T11:55:27.236Z,19.25
2023-01-19T11:57:55.075Z,19.73
2023-01-19T12:00:35.677Z,19.73
2023-01-19T12:03:26.179Z,20.65
2023-01-19T12:05:58.884Z,19.15
2023-01-19T12:08:33.870Z,19.52
2023-01-19T12:13:33.818Z,18.55
2023-01-19T12:16:00.969Z,19.98
2023-01-19T12:18:41.316Z,19.27
2023-01-19T12:21:08.705Z,18.70
2023-01-19T12:24:06.408Z,18.55
2023-01-19T12:26:33.598Z,18.58
2023-01-19T12:29:22.533Z,18.92
2023-01-19T12:32:14.864Z,18.88
2023-01-19T12:34:47.516Z,18.90
2023-01-19T12:37:38.410Z,18.80
2023-01-19T12:40:31.754Z,17.85
2023-01-19T12:43:04.035Z,17.40
2023-01-19T12:45:36.371Z,19.27
2023-01-19T12:48:04.989Z,17.88
2023-01-19T12:50:40.338Z,18.77
2023-01-19T12:53:19.852Z,19.00
2023-01-19T12:56:00.455Z,19.55
2023-01-19T12:58:27.903Z,18.65
2023-01-19T13:01:21.669Z,19.52
2023-01-19T13:03:58.428Z,18.33
2023-01-19T13:06:47.988Z,19.10
2023-01-19T13:09:36.152Z,17.70
2023-01-19T13:12:15.741Z,18.02
2023-01-19T13:14:44.224Z,19.05
2023-01-19T13:17:40.027Z,19.48
2023-01-19T13:20:27.391Z,18.90
2023-01-19T13:23:36.855Z,19.13
2023-01-19T13:26:07.116Z,18.15
2023-01-19T13:28:52.939Z,18.20
2023-01-19T13:31:21.017Z,17.05
2023-01-19T13:33:53.292Z,18.05
2023-01-19T13:36:23.386Z,18.63
2023-01-19T13:38:52.421Z,17.85
2023-01-19T13:41:24.538Z,18.23
2023-01-19T13:44:05.346Z,18.42
2023-01-19T13:46:33.860Z,17.85
2023-01-19T13:49:10.029Z,18.77
2023-01-19T13:51:37.402Z,18.90
2023-01-19T13:54:06.362Z,18.63
2023-01-19T13:56:33.827Z,19.02
2023-01-19T13:59:12.736Z,19.05
2023-01-19T14:01:44.896Z,19.58
2023-01-19T14:04:31.944Z,19.92
2023-01-19T14:07:06.834Z,19.30
2023-01-19T14:09:34.360Z,18.55
2023-01-19T14:12:19.499Z,19.67
2023-01-19T14:14:48.561Z,19.02
2023-01-19T14:17:23.091Z,17.50
2023-01-19T14:19:52.095Z,18.52
2023-01-19T14:22:19.417Z,19.02
2023-01-19T14:24:46.801Z,18.55
2023-01-19T14:27:20.722Z,18.58
2023-01-19T14:29:51.020Z,18.00
2023-01-19T14:32:20.351Z,18.38
2023-01-19T14:35:04.425Z,19.13
2023-01-19T14:37:36.559Z,19.30
2023-01-19T14:40:13.235Z,17.98
2023-01-19T14:42:43.613Z,17.52
2023-01-19T14:45:35.351Z,18.60
2023-01-19T14:48:18.404Z,16.95
2023-01-19T14:51:02.012Z,18.13
2023-01-19T14:53:38.848Z,17.98
2023-01-19T14:56:07.024Z,18.15
2023-01-19T14:58:36.123Z,17.63
2023-01-19T15:01:07.790Z,18.00
2023-01-19T15:03:44.058Z,17.55
2023-01-19T15:06:16.602Z,18.00
2023-01-19T15:08:45.599Z,18.15
2023-01-19T15:11:32.815Z,18.00
2023-01-19T15:14:00.857Z,18.25
2023-01-19T15:16:30.323Z,18.95
2023-01-19T15:18:57.737Z,17.85
2023-01-19T15:21:26.926Z,18.85
2023-01-19T15:23:55.324Z,16.88
2023-01-19T15:26:26.113Z,18.55
2023-01-19T15:28:54.140Z,16.77
2023-01-19T15:31:24.096Z,18.15
2023-01-19T15:33:51.222Z,18.60
2023-01-19T15:36:21.242Z,19.35
2023-01-19T15:38:51.648Z,18.92
2023-01-19T15:41:24.319Z,17.83
2023-01-19T15:43:52.332Z,18.13
2023-01-19T15:46:23.662Z,18.27
2023-01-19T15:48:51.301Z,18.63
2023-01-19T15:51:22.045Z,18.65
2023-01-19T15:53:49.951Z,17.88
2023-01-19T15:56:22.166Z,18.92
2023-01-19T15:58:49.612Z,18.40
2023-01-19T16:01:21.736Z,19.15
2023-01-19T16:03:53.395Z,19.48
2023-01-19T16:06:20.969Z,19.20
2023-01-19T16:08:48.175Z,20.38
2023-01-19T16:11:16.264Z,18.52
2023-01-19T16:13:48.848Z,17.45
2023-01-19T16:16:19.862Z,19.73
2023-01-19T16:18:47.673Z,18.48
2023-01-19T16:21:15.875Z,18.58
2023-01-19T16:23:43.447Z,19.55
2023-01-19T16:26:34.610Z,20.00
2023-01-19T16:29:09.416Z,19.92
2023-01-19T16:31:41.327Z,19.40
2023-01-19T16:34:09.752Z,20.02
2023-01-19T16:36:40.566Z,18.33
2023-01-19T16:39:12.191Z,18.38
2023-01-19T16:41:39.775Z,19.30
2023-01-19T16:44:08.499Z,19.35
2023-01-19T16:46:39.254Z,18.83
2023-01-19T16:49:21.460Z,19.60
2023-01-19T16:51:49.620Z,20.00
2023-01-19T16:54:19.781Z,18.17
2023-01-19T16:56:47.666Z,19.40
2023-01-19T16:59:17.480Z,18.30
2023-01-19T17:01:47.774Z,19.40
2023-01-19T17:04:15.037Z,19.20
2023-01-19T17:06:43.582Z,19.48
2023-01-19T17:09:11.886Z,19.85
2023-01-19T17:11:40.616Z,18.80
2023-01-19T17:14:15.471Z,19.10
2023-01-19T17:19:17.330Z,17.80
2023-01-19T17:21:50.714Z,18.55
2023-01-19T17:24:18.356Z,19.17
2023-01-19T17:26:48.662Z,17.73
2023-01-19T17:29:16.632Z,19.35
2023-01-19T17:31:45.012Z,17.92
2023-01-19T17:34:12.531Z,19.50
2023-01-19T17:36:41.076Z,18.67
2023-01-19T17:39:12.072Z,19.33
2023-01-19T17:41:39.265Z,17.52
2023-01-19T17:44:07.395Z,18.75
2023-01-19T17:46:38.907Z,18.75
2023-01-19T17:49:08.155Z,18.40
2023-01-19T17:51:36.767Z,20.15
2023-01-19T17:54:04.893Z,18.88
2023-01-19T17:56:36.939Z,18.38
2023-01-19T17:59:06.988Z,20.38
2023-01-19T18:01:38.400Z,18.17
2023-01-19T18:04:07.738Z,18.00
2023-01-19T18:06:35.422Z,17.83
2023-01-19T18:09:07.524Z,16.35
2023-01-19T18:11:35.869Z,16.38
2023-01-19T18:14:03.315Z,17.55
2023-01-19T18:16:32.996Z,17.77
2023-01-19T18:19:00.285Z,17.48
2023-01-19T18:21:38.120Z,18.45
2023-01-19T18:24:06.255Z,18.75
2023-01-19T18:26:35.800Z,17.30
2023-01-19T18:29:03.297Z,18.08
2023-01-19T18:31:31.381Z,19.20
2023-01-19T18:34:00.896Z,18.15
2023-01-19T18:36:28.729Z,20.13
2023-01-19T18:38:56.989Z,18.27
2023-01-19T18:41:25.528Z,17.63
2023-01-19T18:44:01.336Z,17.38
2023-01-19T18:46:28.679Z,19.75
2023-01-19T18:48:59.043Z,20.08
2023-01-19T18:51:26.716Z,18.25
2023-01-19T18:53:54.228Z,20.25
2023-01-19T18:56:26.306Z,19.75
2023-01-19T18:58:54.848Z,18.17
2023-01-19T19:01:26.672Z,19.77
2023-01-19T19:03:55.604Z,19.70
2023-01-19T19:06:27.541Z,19.45
2023-01-19T19:08:58.161Z,18.95
2023-01-19T19:11:26.548Z,17.83
2023-01-19T19:13:55.707Z,18.77
2023-01-19T19:16:23.501Z,18.92
2023-01-19T19:18:51.490Z,19.60
2023-01-19T19:21:20.553Z,19.70
2023-01-19T19:23:53.087Z,19.75
2023-01-19T19:26:20.686Z,19.23
2023-01-19T19:28:47.906Z,19.10
2023-01-19T19:31:20.695Z,18.65
2023-01-19T19:33:49.030Z,19.88
2023-01-19T19:36:17.234Z,18.92
2023-01-19T19:38:50.193Z,20.23
2023-01-19T19:41:23.554Z,19.10
2023-01-19T19:43:51.601Z,19.38
2023-01-19T19:46:20.351Z,19.95
2023-01-19T19:48:48.853Z,20.70
2023-01-19T19:51:22.656Z,18.95
2023-01-19T19:53:52.000Z,20.95
2023-01-19T19:56:22.050Z,19.55
2023-01-19T19:58:50.743Z,21.25
2023-01-19T20:01:27.660Z,19.02
2023-01-19T20:03:57.664Z,20.83
2023-01-19T20:06:26.897Z,20.55
2023-01-19T20:08:56.642Z,20.52
2023-01-19T20:11:27.343Z,19.13
2023-01-19T20:13:55.440Z,18.02
2023-01-19T20:16:23.846Z,20.42
2023-01-19T20:18:54.408Z,19.48
2023-01-19T20:21:29.658Z,20.05
2023-01-19T20:24:02.272Z,20.83
2023-01-19T20:26:32.476Z,19.88
2023-01-19T20:29:10.344Z,18.27
2023-01-19T20:31:42.922Z,19.80
2023-01-19T20:34:13.417Z,20.77
2023-01-19T20:36:41.363Z,19.40
2023-01-19T20:39:10.429Z,20.38
2023-01-19T20:41:43.813Z,21.15
2023-01-19T20:44:19.946Z,17.65
2023-01-19T20:46:48.371Z,18.27
2023-01-19T20:49:16.266Z,19.63
2023-01-19T20:51:45.436Z,19.05
2023-01-19T20:54:15.100Z,19.85
2023-01-19T20:56:43.511Z,21.08
2023-01-19T20:59:11.762Z,18.15
2023-01-19T21:01:39.940Z,18.58
2023-01-19T21:04:08.017Z,20.40
2023-01-19T21:06:35.317Z,19.40
2023-01-19T21:09:02.463Z,20.48
2023-01-19T21:11:29.956Z,19.58
2023-01-19T21:13:57.170Z,19.27
2023-01-19T21:16:27.036Z,20.63
2023-01-19T21:18:55.157Z,20.80
2023-01-19T21:21:30.917Z,18.05
2023-01-19T21:24:00.914Z,20.15
2023-01-19T21:26:33.602Z,18.88
2023-01-19T21:29:01.970Z,21.52
2023-01-19T21:31:30.096Z,21.05
2023-01-19T21:33:58.541Z,21.00
2023-01-19T21:36:26.143Z,21.48
2023-01-19T21:38:55.791Z,21.70
2023-01-19T21:41:23.621Z,20.98
2023-01-19T21:43:50.746Z,21.02
2023-01-19T21:46:29.616Z,21.70
2023-01-19T21:49:03.333Z,18.83
2023-01-19T21:51:36.061Z,21.60
2023-01-19T21:54:05.580Z,19.25
2023-01-19T21:56:34.083Z,21.08
2023-01-19T21:59:04.396Z,21.75
2023-01-19T22:01:33.928Z,20.65
2023-01-19T22:04:01.508Z,21.98
2023-01-19T22:06:28.976Z,22.48
2023-01-19T22:08:58.551Z,22.45
2023-01-19T22:11:25.655Z,20.45
2023-01-19T22:13:54.596Z,22.25
2023-01-19T22:16:23.270Z,22.48
2023-01-19T22:18:56.369Z,21.00
2023-01-19T22:21:26.567Z,22.35
2023-01-19T22:24:02.020Z,22.25
2023-01-19T22:26:34.487Z,21.85
2023-01-19T22:29:02.840Z,24.08
2023-01-19T22:31:30.940Z,23.80
2023-01-19T22:34:06.313Z,23.58
2023-01-19T22:36:36.800Z,22.15
2023-01-19T22:39:09.398Z,23.88
2023-01-19T22:41:41.371Z,22.63
2023-01-19T22:44:12.768Z,22.95
2023-01-19T22:46:39.914Z,23.52
2023-01-19T22:49:08.991Z,23.20
2023-01-19T22:51:36.508Z,22.88
2023-01-19T22:54:04.199Z,24.17
2023-01-19T22:56:33.660Z,23.42
2023-01-19T22:59:01.668Z,23.52
2023-01-19T23:01:38.246Z,23.85
2023-01-19T23:04:06.498Z,23.83
2023-01-19T23:06:36.343Z,25.15
2023-01-19T23:09:10.913Z,23.83
2023-01-19T23:11:41.205Z,23.50
2023-01-19T23:14:12.768Z,24.08
2023-01-19T23:16:39.897Z,24.05
2023-01-19T23:19:07.307Z,24.27
2023-01-19T23:21:53.386Z,23.15
2023-01-19T23:24:20.773Z,23.98
2023-01-19T23:26:51.953Z,24.65
2023-01-19T23:29:19.858Z,23.30
2023-01-19T23:31:49.231Z,21.80
2023-01-19T23:34:17.186Z,22.27
2023-01-19T23:36:45.760Z,23.10
2023-01-19T23:39:19.095Z,23.25
2023-01-19T23:41:46.470Z,23.40
2023-01-19T23:44:14.590Z,20.98
2023-01-19T23:46:41.730Z,23.40
2023-01-19T23:49:10.336Z,22.25
2023-01-19T23:51:39.186Z,22.73
2023-01-19T23:54:06.239Z,23.15
2023-01-19T23:56:36.052Z,22.13
2023-01-19T23:59:07.430Z,22.10
